Aviation Digital Data Service (ADDS)

Output produced by METARs form (0755 UTC 30 October 2020)
found at http://www.aviationweather.gov/metar/data/
 
LHKE 300745Z 29008KT CAVOK 10/06 Q1023 R12/01//95 NOSIG RMK BLU
LHKE 300715Z 30008KT CAVOK 09/06 Q1023 R12/01//95 NOSIG RMK BLU
LHKE 300645Z 31010KT CAVOK 09/05 Q1023 R12/01//95 NOSIG RMK BLU
LHKE 300615Z 31008KT CAVOK 08/05 Q1022 R12/01//95 NOSIG RMK BLU
LHKE 300545Z 31010KT CAVOK 07/05 Q1022 R12/01//95 NOSIG RMK BLU
LHKE 300515Z 31008KT CAVOK 06/05 Q1022 R12/01//95 NOSIG RMK BLU
LHKE 300445Z 30008KT CAVOK 06/04 Q1022 R12/01//95 NOSIG RMK BLU
LHKE 300415Z 30008KT CAVOK 06/05 Q1022 R12/29//95 NOSIG RMK BLU
LHKE 300345Z 30008KT CAVOK 07/05 Q1021 R12/29//95 NOSIG RMK BLU
LHKE 300315Z 30012KT CAVOK 07/05 Q1021 R12/29//95 NOSIG RMK BLU
LHKE 300245Z 29014KT CAVOK 07/05 Q1021 R12/29//95 NOSIG RMK BLU
LHKE 300215Z 30012KT CAVOK 07/05 Q1021 R12/29//95 NOSIG RMK BLU
TAF LHKE 300515Z 3006/3015 30008KT CAVOK 
     BECMG 3010/3013 23006KT 9999 FEW025 BKN040 OVC060 
     PROB40 
     TEMPO 3013/3015 8000 -RA SCT015 BKN033 OVC050